Time;durP1;ratioP1;P1;durP2;ratioP2;P2;SDS_P1;SDS_P2;PMS_P1;PMS_P2;Temp;Humidity;BMP_temperature;BMP_pressure;BME280_temperature;BME280_humidity;BME280_pressure;Samples;Min_cycle;Max_cycle;Signal;HPM_P1;HPM_P2
2021/11/21 00:01:15;;;;;;;26.70;20.80;;;8.20;99.90;;;;;;4971403;28;20264;-71
2021/11/21 00:03:42;;;;;;;26.47;20.20;;;8.20;99.90;;;;;;4972229;28;20217;-71
2021/11/21 00:06:09;;;;;;;27.13;19.83;;;8.20;99.90;;;;;;4972022;28;20209;-72
2021/11/21 00:08:36;;;;;;;23.40;19.73;;;8.20;99.90;;;;;;4971706;28;20277;-71
2021/11/21 00:11:03;;;;;;;29.70;20.50;;;8.10;99.90;;;;;;4971547;28;20233;-72
2021/11/21 00:13:30;;;;;;;27.37;20.17;;;8.20;99.90;;;;;;4970905;28;20581;-71
2021/11/21 00:15:57;;;;;;;32.70;21.87;;;8.20;99.90;;;;;;4971831;28;20272;-72
2021/11/21 00:18:26;;;;;;;25.37;20.00;;;8.10;99.90;;;;;;4971266;28;20257;-71
2021/11/21 00:20:53;;;;;;;26.20;19.67;;;8.00;99.90;;;;;;4971807;28;20209;-71
2021/11/21 00:23:21;;;;;;;25.67;19.60;;;7.90;99.90;;;;;;4970851;28;20210;-72
2021/11/21 00:25:48;;;;;;;26.37;18.87;;;8.00;99.90;;;;;;4971559;28;20225;-73
2021/11/21 00:28:15;;;;;;;24.87;19.67;;;8.10;99.90;;;;;;4970818;28;20253;-73
2021/11/21 00:30:42;;;;;;;27.50;21.23;;;8.10;99.90;;;;;;4971500;28;20720;-72
2021/11/21 00:33:09;;;;;;;27.90;20.10;;;8.10;99.90;;;;;;4973033;28;20584;-73
2021/11/21 00:35:38;;;;;;;31.70;22.37;;;7.90;99.90;;;;;;4975610;28;20214;-73
2021/11/21 00:38:05;;;;;;;29.60;20.13;;;7.80;99.90;;;;;;4975099;28;20209;-73
2021/11/21 00:40:32;;;;;;;29.13;21.00;;;7.70;99.90;;;;;;4974893;28;20217;-73
2021/11/21 00:43:00;;;;;;;30.10;21.33;;;7.60;99.90;;;;;;4975083;28;20284;-73
2021/11/21 00:45:28;;;;;;;27.27;20.63;;;7.80;99.90;;;;;;4974408;28;20213;-73
2021/11/21 00:47:56;;;;;;;28.70;20.80;;;7.90;99.90;;;;;;4975207;28;20690;-73
2021/11/21 00:50:26;;;;;;;25.00;17.33;;;7.90;99.90;;;;;;4974328;28;20661;-74
2021/11/21 00:53:00;;;;;;;25.77;18.37;;;8.00;99.90;;;;;;4974872;28;20700;-72
2021/11/21 00:55:38;;;;;;;25.50;19.13;;;8.00;99.90;;;;;;4974244;28;20565;-72
2021/11/21 00:58:07;;;;;;;27.63;19.53;;;8.10;99.90;;;;;;4975441;28;20213;-72
2021/11/21 01:00:35;;;;;;;24.83;18.43;;;8.10;99.90;;;;;;4974701;28;20213;-72
2021/11/21 01:03:02;;;;;;;22.47;18.27;;;8.10;99.90;;;;;;4974630;28;20257;-72
2021/11/21 01:05:29;;;;;;;27.50;18.97;;;8.10;99.90;;;;;;4974609;28;20212;-72
2021/11/21 01:07:58;;;;;;;27.97;18.80;;;8.00;99.90;;;;;;4974226;28;20217;-72
2021/11/21 01:10:25;;;;;;;21.13;16.47;;;7.90;99.90;;;;;;4974649;28;20229;-71
2021/11/21 01:12:54;;;;;;;22.40;18.33;;;7.90;99.90;;;;;;4974628;28;20256;-72
2021/11/21 01:15:23;;;;;;;23.73;17.50;;;8.00;99.90;;;;;;4961388;28;20229;-72
2021/11/21 01:17:52;;;;;;;24.27;18.57;;;8.00;99.90;;;;;;4974543;28;20238;-73
2021/11/21 01:20:21;;;;;;;27.07;19.30;;;8.10;99.90;;;;;;4974045;28;20213;-72
2021/11/21 01:22:48;;;;;;;21.70;17.17;;;8.10;99.90;;;;;;4974332;28;20214;-73
2021/11/21 01:25:17;;;;;;;25.50;18.60;;;8.10;99.90;;;;;;4974108;28;20202;-72
2021/11/21 01:27:45;;;;;;;20.20;17.40;;;8.10;99.90;;;;;;4974582;28;20217;-73
2021/11/21 01:30:15;;;;;;;21.47;16.80;;;8.20;99.90;;;;;;4974193;28;20268;-72
2021/11/21 01:32:42;;;;;;;22.80;17.67;;;8.20;99.90;;;;;;4974229;28;20673;-72
2021/11/21 01:35:10;;;;;;;21.73;17.33;;;8.20;99.90;;;;;;4974614;28;20268;-72
2021/11/21 01:37:38;;;;;;;21.60;16.37;;;8.20;99.90;;;;;;4974911;28;20213;-72
2021/11/21 01:40:08;;;;;;;20.33;14.50;;;8.20;99.90;;;;;;4974299;28;20233;-73
2021/11/21 01:42:37;;;;;;;20.67;16.20;;;8.20;99.90;;;;;;4973754;28;20265;-73
2021/11/21 01:45:05;;;;;;;25.97;18.27;;;8.20;99.90;;;;;;4973881;28;20213;-73
2021/11/21 01:47:32;;;;;;;23.57;16.93;;;8.10;99.90;;;;;;4973204;28;20658;-73
2021/11/21 01:49:59;;;;;;;18.93;15.97;;;8.00;99.90;;;;;;4973866;28;20213;-73
2021/11/21 01:52:26;;;;;;;20.03;16.57;;;8.00;99.90;;;;;;4977107;28;20233;-72
2021/11/21 01:54:53;;;;;;;22.17;16.30;;;8.00;99.90;;;;;;4983807;28;20736;-72
2021/11/21 01:57:20;;;;;;;18.27;16.03;;;7.90;99.90;;;;;;4973340;28;20261;-73
2021/11/21 01:59:49;;;;;;;19.67;16.33;;;7.80;99.90;;;;;;4973854;28;20209;-73
2021/11/21 02:02:16;;;;;;;25.23;19.47;;;7.70;99.90;;;;;;4973676;28;20268;-73
2021/11/21 02:04:43;;;;;;;25.97;17.47;;;7.80;99.90;;;;;;4973542;28;20256;-73
2021/11/21 02:07:10;;;;;;;29.03;16.43;;;7.70;99.90;;;;;;4973896;28;20276;-73
2021/11/21 02:09:37;;;;;;;20.77;16.27;;;7.80;99.90;;;;;;4973881;28;20206;-73
2021/11/21 02:12:05;;;;;;;19.97;16.53;;;7.80;99.90;;;;;;4973799;28;20233;-72
2021/11/21 02:14:32;;;;;;;23.73;16.87;;;7.80;99.90;;;;;;4973364;28;20653;-73
2021/11/21 02:17:00;;;;;;;23.07;16.63;;;7.90;99.90;;;;;;4973550;28;20260;-73
2021/11/21 02:19:27;;;;;;;21.37;16.70;;;7.90;99.90;;;;;;4973197;28;20272;-72
2021/11/21 02:21:56;;;;;;;21.57;15.33;;;7.90;99.90;;;;;;4973173;28;20637;-72
2021/11/21 02:24:23;;;;;;;19.27;15.23;;;7.90;99.90;;;;;;4973117;28;20213;-72
2021/11/21 02:26:50;;;;;;;22.80;16.67;;;8.00;99.90;;;;;;4973095;28;20280;-73
2021/11/21 02:29:17;;;;;;;22.33;16.80;;;7.90;99.90;;;;;;4972850;28;20674;-72
2021/11/21 02:31:44;;;;;;;22.40;16.57;;;7.90;99.90;;;;;;4972998;28;20237;-73
2021/11/21 02:34:11;;;;;;;19.83;14.87;;;7.80;99.90;;;;;;4973362;28;20635;-72
2021/11/21 02:36:43;;;;;;;23.23;16.30;;;7.90;99.90;;;;;;4973596;28;20214;-72
2021/11/21 02:39:12;;;;;;;23.63;16.40;;;7.90;99.90;;;;;;4960170;28;20218;-73
2021/11/21 02:41:39;;;;;;;21.37;15.30;;;7.90;99.90;;;;;;4973308;28;20272;-72
2021/11/21 02:44:06;;;;;;;22.33;16.00;;;7.90;99.90;;;;;;4973340;28;20268;-74
2021/11/21 02:46:34;;;;;;;22.83;15.53;;;7.90;99.90;;;;;;4972709;28;20213;-73
2021/11/21 02:49:02;;;;;;;21.40;15.97;;;7.80;99.90;;;;;;4972572;28;20221;-71
2021/11/21 02:51:29;;;;;;;27.60;17.60;;;7.80;99.90;;;;;;4972535;28;20244;-71
2021/11/21 02:53:56;;;;;;;18.90;14.87;;;7.90;99.90;;;;;;4972501;28;20214;-71
2021/11/21 02:56:25;;;;;;;18.27;15.23;;;7.90;99.90;;;;;;4971591;28;20228;-71
2021/11/21 02:58:52;;;;;;;20.03;14.80;;;8.00;99.90;;;;;;4972578;28;20699;-73
2021/11/21 03:01:23;;;;;;;18.87;15.30;;;8.00;99.90;;;;;;4972389;28;20275;-73
2021/11/21 03:03:51;;;;;;;20.00;15.03;;;8.00;99.90;;;;;;4972433;28;20210;-72
2021/11/21 03:06:18;;;;;;;18.53;14.50;;;8.00;99.90;;;;;;4972287;28;20213;-73
2021/11/21 03:08:45;;;;;;;22.33;16.20;;;8.00;99.90;;;;;;4972362;28;20217;-73
2021/11/21 03:11:27;;;;;;;22.13;17.43;;;8.00;99.90;;;;;;4971809;28;20229;-73
2021/11/21 03:13:54;;;;;;;22.17;16.23;;;8.00;99.90;;;;;;4972759;28;20208;-72
2021/11/21 03:16:21;;;;;;;23.80;16.67;;;7.90;99.90;;;;;;4972093;28;20210;-72
2021/11/21 03:18:48;;;;;;;30.67;20.43;;;7.90;99.90;;;;;;4972392;28;20337;-72
2021/11/21 03:21:15;;;;;;;22.90;18.07;;;7.90;99.90;;;;;;4971910;28;20217;-72
2021/11/21 03:23:43;;;;;;;24.43;20.33;;;8.00;99.90;;;;;;4972354;28;20257;-72
2021/11/21 03:26:10;;;;;;;28.97;21.27;;;7.90;99.90;;;;;;4972599;28;20213;-72
2021/11/21 03:28:39;;;;;;;26.17;19.53;;;7.90;99.90;;;;;;4972340;28;20209;-72
2021/11/21 03:31:06;;;;;;;24.67;16.57;;;7.60;99.90;;;;;;4972709;28;20234;-72
2021/11/21 03:33:33;;;;;;;20.80;14.37;;;7.50;99.90;;;;;;4971396;28;20209;-72
2021/11/21 03:36:00;;;;;;;18.60;14.27;;;7.60;99.90;;;;;;4972427;28;20218;-72
2021/11/21 03:38:27;;;;;;;17.30;14.13;;;7.60;99.90;;;;;;4971820;28;20591;-72
2021/11/21 03:40:55;;;;;;;19.83;14.67;;;7.70;99.90;;;;;;4972069;28;20256;-72
2021/11/21 03:43:22;;;;;;;15.97;13.50;;;7.70;99.90;;;;;;4969858;28;20557;-72
2021/11/21 03:45:50;;;;;;;17.47;14.67;;;7.70;99.90;;;;;;4971529;28;20222;-72
2021/11/21 03:48:17;;;;;;;16.47;12.70;;;7.70;99.90;;;;;;4971497;28;20213;-71
2021/11/21 03:50:44;;;;;;;17.73;13.90;;;7.70;99.90;;;;;;4971669;28;20635;-72
2021/11/21 03:53:11;;;;;;;19.33;14.37;;;7.60;99.90;;;;;;4972142;28;20205;-72
2021/11/21 03:55:39;;;;;;;17.53;13.80;;;7.50;99.90;;;;;;4971982;28;20665;-72
2021/11/21 03:58:06;;;;;;;19.77;13.27;;;7.60;99.90;;;;;;4971931;28;20210;-72
2021/11/21 04:00:33;;;;;;;19.13;12.43;;;7.70;99.90;;;;;;4971056;28;20232;-72
2021/11/21 04:03:01;;;;;;;18.17;12.30;;;7.70;99.90;;;;;;4972354;28;20213;-72
2021/11/21 04:05:28;;;;;;;15.27;12.30;;;7.80;99.90;;;;;;4971404;28;20205;-72
2021/11/21 04:07:55;;;;;;;17.87;13.23;;;7.80;99.90;;;;;;4971564;28;20748;-72
2021/11/21 04:10:23;;;;;;;17.83;13.37;;;7.80;99.90;;;;;;4971518;28;20213;-72
2021/11/21 04:12:50;;;;;;;19.23;13.47;;;7.80;99.90;;;;;;4958282;28;20237;-71
2021/11/21 04:15:17;;;;;;;16.80;13.20;;;7.70;99.90;;;;;;4970930;28;20740;-72
2021/11/21 04:17:44;;;;;;;22.10;14.53;;;7.70;99.90;;;;;;4971303;28;20740;-72
2021/11/21 04:20:14;;;;;;;17.50;13.10;;;7.60;99.90;;;;;;4971818;28;20253;-72
2021/11/21 04:22:41;;;;;;;13.80;11.63;;;7.50;99.90;;;;;;4971580;28;20205;-73
2021/11/21 04:25:09;;;;;;;16.23;13.57;;;7.50;99.90;;;;;;4972022;28;20216;-71
2021/11/21 04:27:37;;;;;;;15.93;12.13;;;7.60;99.90;;;;;;4971328;28;20701;-73
2021/11/21 04:30:06;;;;;;;18.00;13.00;;;7.50;99.90;;;;;;4971284;28;20264;-74
2021/11/21 04:32:33;;;;;;;14.30;12.13;;;7.50;99.90;;;;;;4971252;28;20237;-73
2021/11/21 04:35:00;;;;;;;13.97;11.77;;;7.50;99.90;;;;;;4958386;28;20665;-72
2021/11/21 04:37:29;;;;;;;16.57;13.43;;;7.50;99.90;;;;;;4971014;28;20241;-71
2021/11/21 04:39:56;;;;;;;20.03;14.03;;;7.40;99.90;;;;;;4971473;28;20210;-71
2021/11/21 04:42:22;;;;;;;16.03;12.13;;;7.40;99.90;;;;;;4971151;28;20205;-72
2021/11/21 04:44:49;;;;;;;19.30;12.03;;;7.30;99.90;;;;;;4971202;28;20260;-72
2021/11/21 04:47:17;;;;;;;16.00;12.70;;;7.20;99.90;;;;;;4971013;28;20638;-72
2021/11/21 04:49:45;;;;;;;18.50;13.47;;;7.10;99.90;;;;;;4971182;28;20229;-72
2021/11/21 04:52:12;;;;;;;16.57;14.03;;;7.20;99.90;;;;;;4971166;28;20234;-72
2021/11/21 04:54:40;;;;;;;15.80;12.23;;;7.20;99.90;;;;;;4971780;28;20275;-72
2021/11/21 04:57:08;;;;;;;16.73;13.40;;;7.20;99.90;;;;;;4971497;28;20209;-72
2021/11/21 04:59:36;;;;;;;28.27;13.37;;;7.30;99.90;;;;;;4970975;28;20256;-72
2021/11/21 05:02:04;;;;;;;17.43;12.37;;;7.30;99.90;;;;;;4971060;28;20264;-71
2021/11/21 05:04:31;;;;;;;17.47;12.30;;;7.30;99.90;;;;;;4970721;28;20591;-71
2021/11/21 05:06:57;;;;;;;29.47;14.03;;;7.30;99.90;;;;;;4970879;28;20269;-71
2021/11/21 05:09:24;;;;;;;14.27;12.00;;;7.30;99.90;;;;;;4970590;28;20217;-72
2021/11/21 05:11:53;;;;;;;17.27;11.73;;;7.40;99.90;;;;;;4970840;28;20233;-70
2021/11/21 05:14:21;;;;;;;14.87;12.80;;;7.40;99.90;;;;;;4970704;28;20569;-71
2021/11/21 05:16:48;;;;;;;15.83;12.03;;;7.50;99.90;;;;;;4971259;28;20205;-71
2021/11/21 05:19:16;;;;;;;18.37;13.57;;;7.40;99.90;;;;;;4971944;28;20580;-71
2021/11/21 05:21:44;;;;;;;14.60;12.37;;;7.50;99.90;;;;;;4974839;28;20592;-71
2021/11/21 05:24:11;;;;;;;13.47;12.03;;;7.50;99.90;;;;;;4974281;28;20202;-71
2021/11/21 05:26:39;;;;;;;15.10;11.30;;;7.60;99.90;;;;;;4974742;28;20209;-70
2021/11/21 05:29:07;;;;;;;14.10;12.60;;;7.60;99.90;;;;;;4974287;28;20212;-70
2021/11/21 05:31:34;;;;;;;16.70;11.07;;;7.60;99.90;;;;;;4974088;28;20202;-70
2021/11/21 05:34:01;;;;;;;15.20;11.80;;;7.60;99.90;;;;;;4974247;28;20264;-70
2021/11/21 05:36:28;;;;;;;15.40;11.47;;;7.60;99.90;;;;;;4974118;28;20202;-70
2021/11/21 05:38:55;;;;;;;14.67;12.60;;;7.60;99.90;;;;;;4974293;28;20674;-70
2021/11/21 05:41:22;;;;;;;14.70;12.23;;;7.60;99.90;;;;;;4973804;28;20209;-70
2021/11/21 05:43:49;;;;;;;13.07;10.63;;;7.60;99.90;;;;;;4974270;28;20217;-70
2021/11/21 05:46:17;;;;;;;13.00;11.27;;;7.60;99.90;;;;;;4973738;28;20205;-71
2021/11/21 05:48:44;;;;;;;14.47;12.30;;;7.60;99.90;;;;;;4974014;28;20272;-70
2021/11/21 05:51:11;;;;;;;18.63;13.00;;;7.60;99.90;;;;;;4973813;28;20272;-70
2021/11/21 05:53:38;;;;;;;16.43;12.83;;;7.60;99.90;;;;;;4973667;28;20243;-69
2021/11/21 05:56:06;;;;;;;14.77;10.83;;;7.60;99.90;;;;;;4974197;28;20210;-71
2021/11/21 05:58:33;;;;;;;13.63;11.80;;;7.60;99.90;;;;;;4973036;28;20206;-71
2021/11/21 06:01:00;;;;;;;15.87;12.00;;;7.60;99.90;;;;;;4973491;28;20386;-71
2021/11/21 06:03:29;;;;;;;15.33;12.90;;;7.60;99.90;;;;;;4973179;28;20218;-71
2021/11/21 06:05:56;;;;;;;16.90;11.20;;;7.60;99.90;;;;;;4974059;28;20213;-71
2021/11/21 06:08:23;;;;;;;13.83;10.53;;;7.70;99.90;;;;;;4973542;28;20268;-71
2021/11/21 06:10:50;;;;;;;15.03;13.40;;;7.60;99.90;;;;;;4973739;28;20606;-71
2021/11/21 06:13:17;;;;;;;13.43;10.90;;;7.60;99.90;;;;;;4973183;28;20233;-71
2021/11/21 06:15:45;;;;;;;14.80;10.83;;;7.50;99.90;;;;;;4973623;28;20213;-71
2021/11/21 06:18:12;;;;;;;14.37;11.13;;;7.50;99.90;;;;;;4973127;28;20321;-71
2021/11/21 06:20:41;;;;;;;17.17;11.67;;;7.60;99.90;;;;;;4973778;28;20206;-71
2021/11/21 06:23:09;;;;;;;14.63;11.20;;;7.70;99.90;;;;;;4973709;28;20256;-71
2021/11/21 06:25:36;;;;;;;14.73;12.03;;;7.70;99.90;;;;;;4972982;28;20216;-71
2021/11/21 06:28:03;;;;;;;13.77;10.83;;;7.80;99.90;;;;;;4973378;28;20562;-71
2021/11/21 06:30:30;;;;;;;14.37;11.07;;;7.80;99.90;;;;;;4972760;28;20213;-71
2021/11/21 06:32:57;;;;;;;16.43;12.67;;;7.80;99.90;;;;;;4973344;28;20229;-71
2021/11/21 06:35:24;;;;;;;17.00;13.00;;;7.80;99.90;;;;;;4973141;28;20209;-71
2021/11/21 06:37:53;;;;;;;19.30;13.53;;;7.80;99.90;;;;;;4972982;28;20214;-71
2021/11/21 06:40:20;;;;;;;19.37;14.33;;;7.80;99.90;;;;;;4972453;28;20646;-71
2021/11/21 06:42:47;;;;;;;22.63;14.17;;;7.90;99.90;;;;;;4973097;28;20261;-70
2021/11/21 06:45:14;;;;;;;19.50;14.10;;;7.90;99.90;;;;;;4972552;28;20733;-71
2021/11/21 06:47:42;;;;;;;19.23;13.83;;;7.90;99.90;;;;;;4972644;28;20217;-71
2021/11/21 06:50:11;;;;;;;23.90;14.27;;;7.90;99.90;;;;;;4973055;28;20233;-71
2021/11/21 06:52:38;;;;;;;18.33;14.00;;;7.90;99.90;;;;;;4973291;28;20654;-72
2021/11/21 06:55:09;;;;;;;22.17;14.23;;;7.70;99.90;;;;;;4971768;28;20213;-72
2021/11/21 06:57:36;;;;;;;17.10;13.97;;;7.70;99.90;;;;;;4971661;28;20233;-72
2021/11/21 07:00:07;;;;;;;16.17;12.67;;;7.70;99.90;;;;;;4972098;28;20744;-72
2021/11/21 07:02:34;;;;;;;16.83;13.17;;;7.60;99.90;;;;;;4972266;28;20206;-72
2021/11/21 07:05:01;;;;;;;17.33;13.50;;;7.70;99.90;;;;;;4972414;28;20272;-71
2021/11/21 07:07:28;;;;;;;18.20;12.60;;;7.70;99.90;;;;;;4972154;28;20213;-72
2021/11/21 07:09:55;;;;;;;19.10;13.63;;;7.70;99.90;;;;;;4972177;28;20676;-72
2021/11/21 07:12:23;;;;;;;14.83;11.73;;;7.70;99.90;;;;;;4971709;28;20283;-72
2021/11/21 07:14:50;;;;;;;19.70;13.07;;;7.70;99.90;;;;;;4971706;28;20218;-71
2021/11/21 07:17:17;;;;;;;16.67;12.57;;;7.70;99.90;;;;;;4971248;28;20264;-72
2021/11/21 07:19:44;;;;;;;15.93;12.43;;;7.70;99.90;;;;;;4972536;28;20210;-71
2021/11/21 07:22:11;;;;;;;16.37;12.47;;;7.70;99.90;;;;;;4972018;28;20673;-72
2021/11/21 07:24:38;;;;;;;18.13;14.23;;;7.70;99.90;;;;;;4970944;28;20208;-72
2021/11/21 07:27:06;;;;;;;15.30;12.63;;;7.70;99.90;;;;;;4971473;28;20202;-71
2021/11/21 07:29:34;;;;;;;15.00;11.67;;;7.70;99.90;;;;;;4970822;28;20268;-72
2021/11/21 07:32:03;;;;;;;14.33;12.83;;;7.70;99.90;;;;;;4971037;28;20209;-71
2021/11/21 07:34:30;;;;;;;15.07;10.97;;;7.80;99.90;;;;;;4970997;28;20284;-71
2021/11/21 07:36:58;;;;;;;14.90;11.00;;;7.90;99.90;;;;;;4971354;28;20239;-72
2021/11/21 07:39:25;;;;;;;22.50;11.67;;;8.00;99.90;;;;;;4971042;28;20252;-71
2021/11/21 07:41:52;;;;;;;13.90;10.67;;;8.00;99.90;;;;;;4971696;28;20209;-72
2021/11/21 07:44:19;;;;;;;15.77;13.60;;;8.00;99.90;;;;;;4971170;28;20703;-72
2021/11/21 07:46:48;;;;;;;17.53;13.03;;;7.90;99.90;;;;;;4970941;28;20229;-71
2021/11/21 07:49:15;;;;;;;13.30;11.90;;;7.90;99.90;;;;;;4969790;28;20241;-72
2021/11/21 07:51:42;;;;;;;17.97;12.77;;;7.80;99.90;;;;;;4968711;28;20209;-70
2021/11/21 07:54:09;;;;;;;15.93;12.40;;;7.80;99.90;;;;;;4971880;28;20233;-72
2021/11/21 07:56:37;;;;;;;15.87;11.97;;;7.60;99.90;;;;;;4966990;28;20305;-73
2021/11/21 07:59:04;;;;;;;13.37;11.53;;;7.70;99.90;;;;;;4971855;28;20292;-73
2021/11/21 08:01:31;;;;;;;13.80;11.67;;;7.80;99.90;;;;;;4971478;28;20213;-72
2021/11/21 08:03:59;;;;;;;19.33;12.97;;;7.90;99.90;;;;;;4971427;28;20213;-73
2021/11/21 08:06:26;;;;;;;19.70;13.13;;;8.20;99.90;;;;;;4971548;28;20585;-72
2021/11/21 08:08:53;;;;;;;16.93;12.93;;;8.50;99.90;;;;;;4971487;28;20299;-73
2021/11/21 08:11:20;;;;;;;15.73;12.50;;;8.70;99.90;;;;;;4971215;28;20279;-73
2021/11/21 08:13:47;;;;;;;13.97;10.43;;;8.90;99.90;;;;;;4971218;28;20795;-74
2021/11/21 08:16:14;;;;;;;15.13;11.30;;;9.00;99.90;;;;;;4970775;28;20260;-73
2021/11/21 08:18:41;;;;;;;13.30;10.47;;;9.20;99.90;;;;;;4970759;28;20569;-72
2021/11/21 08:21:09;;;;;;;14.93;10.90;;;9.40;99.90;;;;;;4971294;28;20276;-73
2021/11/21 08:23:36;;;;;;;11.40;10.20;;;9.60;99.90;;;;;;4971791;28;20206;-72
2021/11/21 08:26:04;;;;;;;12.23;8.93;;;9.80;99.90;;;;;;4971445;28;20245;-73
2021/11/21 08:28:31;;;;;;;12.03;8.40;;;9.90;99.90;;;;;;4971206;28;20212;-72
2021/11/21 08:30:58;;;;;;;10.53;9.43;;;10.00;99.90;;;;;;4971277;28;20264;-72
2021/11/21 08:33:25;;;;;;;10.17;8.37;;;10.20;99.90;;;;;;4971099;28;20280;-73
2021/11/21 08:35:52;;;;;;;13.87;9.10;;;10.20;99.90;;;;;;4970464;28;20213;-74
2021/11/21 08:38:20;;;;;;;12.93;7.87;;;10.10;99.90;;;;;;4970959;28;20205;-72
2021/11/21 08:40:47;;;;;;;11.53;8.87;;;10.10;99.90;;;;;;4971287;28;20216;-73
2021/11/21 08:43:14;;;;;;;10.30;7.53;;;10.10;99.90;;;;;;4971291;28;20205;-74
2021/11/21 08:45:41;;;;;;;10.53;7.97;;;10.20;99.90;;;;;;4970615;28;20264;-73
2021/11/21 08:48:08;;;;;;;9.83;7.40;;;10.20;99.90;;;;;;4970603;28;20669;-75
2021/11/21 08:50:35;;;;;;;8.10;6.57;;;10.40;99.90;;;;;;4970972;28;20651;-69
2021/11/21 08:53:03;;;;;;;9.60;7.13;;;10.90;99.90;;;;;;4970079;28;20602;-72
2021/11/21 08:55:31;;;;;;;11.77;7.93;;;10.90;99.90;;;;;;4973861;28;20625;-70
2021/11/21 08:57:58;;;;;;;10.70;6.93;;;11.30;99.90;;;;;;4974953;28;20209;-73
2021/11/21 09:00:26;;;;;;;11.00;7.67;;;11.50;99.90;;;;;;4971641;28;20584;-72
2021/11/21 09:02:53;;;;;;;9.23;7.27;;;12.40;99.90;;;;;;4973319;28;20209;-73
2021/11/21 09:05:20;;;;;;;9.67;6.70;;;12.10;99.90;;;;;;4974092;28;20624;-71
2021/11/21 09:07:47;;;;;;;8.27;7.37;;;12.00;99.90;;;;;;4974704;28;20681;-71
2021/11/21 09:10:17;;;;;;;8.63;7.43;;;11.80;99.90;;;;;;4974039;28;20257;-73
2021/11/21 09:12:46;;;;;;;7.80;6.80;;;11.60;99.90;;;;;;4975046;28;20260;-72
2021/11/21 09:15:15;;;;;;;8.80;6.97;;;11.60;99.90;;;;;;4973613;28;20213;-71
2021/11/21 09:17:42;;;;;;;8.63;7.63;;;11.70;99.90;;;;;;4974284;28;20618;-71
2021/11/21 09:20:10;;;;;;;6.90;5.63;;;11.90;99.90;;;;;;4974826;28;20296;-71
2021/11/21 09:22:37;;;;;;;9.53;5.37;;;12.00;99.90;;;;;;4974561;28;20209;-71
2021/11/21 09:25:05;;;;;;;10.00;6.23;;;12.20;99.90;;;;;;4973676;28;20657;-71
2021/11/21 09:27:32;;;;;;;11.73;8.23;;;12.30;99.90;;;;;;4971219;28;20267;-71
2021/11/21 09:30:00;;;;;;;7.30;6.00;;;12.40;99.90;;;;;;4974025;28;20268;-71
2021/11/21 09:32:27;;;;;;;10.40;6.77;;;12.40;99.90;;;;;;4973928;28;20202;-71
2021/11/21 09:34:54;;;;;;;8.27;6.13;;;12.90;99.90;;;;;;4974259;28;20259;-72
2021/11/21 09:37:21;;;;;;;8.97;6.23;;;13.30;99.90;;;;;;4973232;28;20205;-73
2021/11/21 09:39:49;;;;;;;6.78;5.97;;;13.00;99.90;;;;;;4974029;28;20209;-72
2021/11/21 09:42:16;;;;;;;7.68;6.03;;;12.80;99.90;;;;;;4973479;28;20210;-73
2021/11/21 09:44:43;;;;;;;7.88;6.20;;;12.60;99.90;;;;;;4973767;28;20213;-72
2021/11/21 09:47:13;;;;;;;8.25;5.65;;;12.60;99.90;;;;;;4974185;28;20288;-73
2021/11/21 09:49:41;;;;;;;8.43;5.97;;;12.50;99.90;;;;;;4973638;28;20656;-72
2021/11/21 09:52:14;;;;;;;6.57;5.40;;;12.60;99.90;;;;;;4974468;28;20209;-75
2021/11/21 09:54:41;;;;;;;6.93;4.45;;;12.60;99.90;;;;;;4974004;28;20245;-75
2021/11/21 09:57:08;;;;;;;5.93;4.30;;;12.60;99.90;;;;;;4974209;28;20212;-76
2021/11/21 09:59:59;;;;;;;8.60;5.53;;;12.70;99.90;;;;;;4973762;28;20645;-77
2021/11/21 10:02:31;;;;;;;5.57;4.72;;;12.60;99.90;;;;;;4961114;28;20296;-75
2021/11/21 10:04:59;;;;;;;6.68;4.20;;;12.60;99.90;;;;;;4973364;28;20236;-76
2021/11/21 10:07:30;;;;;;;6.97;5.75;;;12.60;99.90;;;;;;4973636;28;20205;-75
2021/11/21 10:09:59;;;;;;;10.20;6.45;;;12.50;99.90;;;;;;4973961;28;20261;-75
2021/11/21 10:12:33;;;;;;;9.77;6.57;;;12.50;99.90;;;;;;4973030;28;20558;-75
2021/11/21 10:15:04;;;;;;;7.78;5.70;;;12.40;99.90;;;;;;4973452;28;20225;-74
2021/11/21 10:17:33;;;;;;;15.27;10.27;;;12.40;99.90;;;;;;4973046;28;20228;-76
2021/11/21 10:20:18;;;;;;;11.60;6.82;;;12.30;99.90;;;;;;4973508;28;20228;-75
2021/11/21 10:23:01;;;;;;;5.88;5.13;;;12.30;99.90;;;;;;4973769;28;20216;-75
2021/11/21 10:25:54;;;;;;;6.88;5.68;;;12.30;99.90;;;;;;4973077;28;20280;-76
2021/11/21 10:28:25;;;;;;;5.22;4.70;;;12.20;99.90;;;;;;4973008;28;20221;-73
2021/11/21 10:31:05;;;;;;;7.10;5.43;;;12.20;99.90;;;;;;4973503;28;20210;-77
2021/11/21 10:33:35;;;;;;;9.93;6.38;;;12.20;99.90;;;;;;4972977;28;20704;-76
2021/11/21 10:36:05;;;;;;;8.55;5.22;;;12.30;99.90;;;;;;4972841;28;20252;-73
2021/11/21 10:38:34;;;;;;;10.20;7.05;;;12.40;99.90;;;;;;4972811;28;21143;-77
2021/11/21 10:41:07;;;;;;;9.17;7.03;;;12.50;99.90;;;;;;4973211;28;20249;-76
2021/11/21 10:43:47;;;;;;;7.22;6.32;;;12.60;99.90;;;;;;4973003;28;20210;-76
2021/11/21 10:46:34;;;;;;;8.73;6.50;;;12.60;99.90;;;;;;4972471;28;20673;-75
2021/11/21 10:49:28;;;;;;;10.95;7.68;;;12.60;99.90;;;;;;4972713;28;20225;-76
2021/11/21 10:52:08;;;;;;;9.63;7.13;;;12.60;99.90;;;;;;4974879;28;20206;-72
2021/11/21 10:54:38;;;;;;;8.90;6.18;;;12.60;99.90;;;;;;4972881;28;20240;-74
2021/11/21 10:57:07;;;;;;;9.48;6.15;;;12.60;99.90;;;;;;4972567;28;20206;-73
2021/11/21 10:59:37;;;;;;;34.92;6.97;;;12.60;99.90;;;;;;4972350;28;20631;-72
2021/11/21 11:02:09;;;;;;;8.15;6.07;;;12.60;99.90;;;;;;4972819;28;20289;-73
2021/11/21 11:04:38;;;;;;;9.27;6.25;;;12.50;99.90;;;;;;4972803;28;20206;-73
2021/11/21 11:07:16;;;;;;;9.75;6.57;;;12.40;99.90;;;;;;4973015;28;20260;-75
2021/11/21 11:09:44;;;;;;;10.52;7.68;;;12.40;99.90;;;;;;4972675;28;20292;-73
2021/11/21 11:12:12;;;;;;;8.73;6.43;;;12.40;99.90;;;;;;4972571;28;20209;-73
2021/11/21 11:14:39;;;;;;;8.50;6.32;;;12.50;99.90;;;;;;4972772;28;20288;-73
2021/11/21 11:17:06;;;;;;;10.57;6.60;;;12.50;99.90;;;;;;4971554;28;20221;-74
2021/11/21 11:19:35;;;;;;;6.47;5.60;;;12.50;99.90;;;;;;4972310;28;20213;-75
2021/11/21 11:22:04;;;;;;;8.65;6.65;;;12.60;99.90;;;;;;4972312;28;20312;-76
2021/11/21 11:24:34;;;;;;;8.13;6.13;;;12.70;99.90;;;;;;4971880;28;20209;-73
2021/11/21 11:27:08;;;;;;;9.55;8.07;;;12.70;99.90;;;;;;4972403;28;20280;-74
2021/11/21 11:29:39;;;;;;;10.43;6.90;;;12.90;99.90;;;;;;4971997;28;20201;-73
2021/11/21 11:32:20;;;;;;;10.93;8.07;;;12.90;99.90;;;;;;4972636;28;20264;-73
2021/11/21 11:34:47;;;;;;;15.18;8.60;;;12.90;99.90;;;;;;4959906;28;20292;-74
2021/11/21 11:37:25;;;;;;;8.40;6.40;;;13.00;99.90;;;;;;4971856;28;20642;-73
2021/11/21 11:39:52;;;;;;;9.18;6.70;;;13.10;99.90;;;;;;4972125;28;20267;-74
2021/11/21 11:42:35;;;;;;;13.18;8.30;;;13.20;99.90;;;;;;4971695;28;20214;-73
2021/11/21 11:45:05;;;;;;;11.23;7.88;;;13.20;99.90;;;;;;4960163;28;20217;-75
2021/11/21 11:47:32;;;;;;;10.80;8.27;;;13.20;99.90;;;;;;4971376;28;20765;-73
2021/11/21 11:49:59;;;;;;;12.75;7.13;;;13.10;99.90;;;;;;4971714;28;20740;-77
2021/11/21 11:53:00;;;;;;;11.00;6.93;;;13.10;99.90;;;;;;4970201;28;20268;-74
2021/11/21 11:55:29;;;;;;;12.73;7.20;;;13.20;99.90;;;;;;4970636;28;20260;-73
2021/11/21 11:57:57;;;;;;;9.23;6.78;;;13.30;99.90;;;;;;4971727;28;20213;-72
2021/11/21 12:00:29;;;;;;;10.00;7.65;;;13.30;99.90;;;;;;4971114;28;20264;-74
2021/11/21 12:02:58;;;;;;;12.98;9.15;;;13.30;99.90;;;;;;4971956;28;20209;-72
2021/11/21 12:05:31;;;;;;;8.93;6.63;;;13.40;99.90;;;;;;4971266;28;20221;-74
2021/11/21 12:08:15;;;;;;;11.05;6.63;;;13.40;99.90;;;;;;4971837;28;20210;-74
2021/11/21 12:10:48;;;;;;;12.38;7.90;;;13.40;99.90;;;;;;4971580;28;20678;-73
2021/11/21 12:13:28;;;;;;;13.63;7.63;;;13.20;99.90;;;;;;4971322;28;20217;-72
2021/11/21 12:16:00;;;;;;;7.13;5.82;;;13.20;99.90;;;;;;4971603;28;20213;-75
2021/11/21 12:18:54;;;;;;;8.63;6.20;;;13.30;99.90;;;;;;4971163;28;20217;-73
2021/11/21 12:21:41;;;;;;;8.43;6.13;;;13.30;99.90;;;;;;4960541;28;20297;-73
2021/11/21 12:24:21;;;;;;;11.10;7.28;;;13.50;99.90;;;;;;4971721;28;20693;-73
2021/11/21 12:26:49;;;;;;;8.00;6.07;;;13.60;99.90;;;;;;4971793;28;20210;-76
2021/11/21 12:29:31;;;;;;;10.80;6.75;;;13.70;99.90;;;;;;4974001;28;20260;-76
2021/11/21 12:32:01;;;;;;;16.33;9.55;;;13.70;99.90;;;;;;4974930;28;20264;-73
2021/11/21 12:34:36;;;;;;;14.10;9.45;;;13.70;99.90;;;;;;4975161;28;20256;-73
2021/11/21 12:37:18;;;;;;;13.63;7.78;;;13.60;99.90;;;;;;4975666;28;20209;-72
2021/11/21 12:39:50;;;;;;;5.65;5.07;;;13.60;99.90;;;;;;4975604;28;20304;-72
2021/11/21 12:42:19;;;;;;;9.02;5.68;;;13.50;99.90;;;;;;4974815;28;20209;-74
2021/11/21 12:44:46;;;;;;;8.15;5.88;;;13.40;99.90;;;;;;4974985;28;20205;-76
2021/11/21 12:47:15;;;;;;;6.85;5.65;;;13.40;99.90;;;;;;4972673;28;20221;-72